createdAt,value
2018-12-15T00:00:39.119Z,0
2018-12-15T00:01:41.433Z,0
2018-12-15T00:02:43.525Z,0
2018-12-15T00:03:45.546Z,0
2018-12-15T00:04:47.864Z,0
2018-12-15T00:05:49.881Z,0
2018-12-15T00:06:51.902Z,0
2018-12-15T00:07:53.920Z,0
2018-12-15T00:08:55.958Z,0
2018-12-15T00:09:57.974Z,0
2018-12-15T00:11:00.280Z,0
2018-12-15T00:12:02.310Z,0
2018-12-15T00:13:04.323Z,0
2018-12-15T00:14:06.356Z,0
2018-12-15T00:15:08.659Z,0
2018-12-15T00:16:10.677Z,0
2018-12-15T00:17:12.704Z,0
2018-12-15T00:18:14.736Z,0
2018-12-15T00:19:16.762Z,0
2018-12-15T00:20:19.083Z,0
2018-12-15T00:21:21.107Z,0
2018-12-15T00:22:23.118Z,0
2018-12-15T00:23:25.434Z,0
2018-12-15T00:24:27.470Z,0
2018-12-15T00:25:29.756Z,0
2018-12-15T00:26:32.071Z,0
2018-12-15T00:27:34.088Z,0
2018-12-15T00:28:36.512Z,0
2018-12-15T00:29:38.797Z,0
2018-12-15T00:30:41.116Z,0
2018-12-15T00:31:43.142Z,0
2018-12-15T00:32:45.184Z,0
2018-12-15T00:33:47.193Z,0
2018-12-15T00:34:49.221Z,0
2018-12-15T00:35:51.251Z,0
2018-12-15T00:36:53.277Z,0
2018-12-15T00:37:55.310Z,0
2018-12-15T00:38:57.328Z,0
2018-12-15T00:39:59.348Z,0
2018-12-15T00:41:01.374Z,0
2018-12-15T00:42:03.402Z,0
2018-12-15T00:43:05.424Z,0
2018-12-15T00:44:08.113Z,0
2018-12-15T00:45:12.693Z,0
2018-12-15T00:46:15.201Z,0
2018-12-15T00:47:17.236Z,0
2018-12-15T00:48:21.459Z,0
2018-12-15T00:49:23.808Z,0
2018-12-15T00:50:25.831Z,0
2018-12-15T00:51:28.247Z,0
2018-12-15T00:52:37.702Z,0
2018-12-15T00:53:39.752Z,0
2018-12-15T00:54:41.775Z,0
2018-12-15T00:55:43.786Z,0
2018-12-15T00:56:45.813Z,0
2018-12-15T00:57:47.855Z,0
2018-12-15T00:58:49.872Z,0
2018-12-15T00:59:51.901Z,0
2018-12-15T01:00:53.932Z,0
2018-12-15T01:01:55.950Z,0
2018-12-15T01:02:58.050Z,0
2018-12-15T01:04:00.072Z,0
2018-12-15T01:05:02.776Z,0
2018-12-15T01:06:04.792Z,0
2018-12-15T01:07:11.284Z,0
2018-12-15T01:08:13.602Z,0
2018-12-15T01:09:15.628Z,0
2018-12-15T01:10:17.659Z,0
2018-12-15T01:11:20.057Z,0
2018-12-15T01:12:22.088Z,0
2018-12-15T01:13:24.108Z,0
2018-12-15T01:14:26.416Z,0
2018-12-15T01:15:28.807Z,0
2018-12-15T01:16:30.828Z,0
2018-12-15T01:17:33.134Z,0
2018-12-15T01:18:35.152Z,0
2018-12-15T01:19:37.188Z,0
2018-12-15T01:20:39.207Z,0
2018-12-15T01:21:41.574Z,0
2018-12-15T01:22:43.609Z,0
2018-12-15T01:23:45.636Z,0
2018-12-15T01:24:47.665Z,0
2018-12-15T01:25:49.681Z,0
2018-12-15T01:26:51.702Z,0
2018-12-15T01:27:53.733Z,0
2018-12-15T01:28:56.042Z,0
2018-12-15T01:29:58.060Z,0
2018-12-15T01:31:00.074Z,0
2018-12-15T01:32:02.391Z,0
2018-12-15T01:33:04.411Z,0
2018-12-15T01:34:06.436Z,0
2018-12-15T01:35:08.463Z,0
2018-12-15T01:36:10.487Z,0
2018-12-15T01:37:12.797Z,0
2018-12-15T01:38:14.822Z,0
2018-12-15T01:39:16.860Z,0
2018-12-15T01:40:18.865Z,0
2018-12-15T01:41:20.894Z,0
2018-12-15T01:42:22.915Z,0
2018-12-15T01:43:24.932Z,0
2018-12-15T01:44:26.958Z,0
2018-12-15T01:45:29.290Z,0
2018-12-15T01:46:31.315Z,0
2018-12-15T01:47:33.368Z,0
2018-12-15T01:48:35.414Z,0
2018-12-15T01:49:37.439Z,0
2018-12-15T01:50:39.470Z,0
2018-12-15T01:51:41.517Z,0
2018-12-15T01:52:43.553Z,0
2018-12-15T01:53:45.567Z,0
2018-12-15T01:54:47.613Z,0
2018-12-15T01:55:49.652Z,0
2018-12-15T01:56:52.057Z,0
2018-12-15T01:57:54.076Z,0
2018-12-15T01:58:56.099Z,0
2018-12-15T01:59:58.188Z,0
2018-12-15T02:01:00.602Z,0
2018-12-15T02:02:02.930Z,0
2018-12-15T02:03:04.950Z,0
2018-12-15T02:04:07.240Z,0
2018-12-15T02:05:09.277Z,0
2018-12-15T02:06:11.298Z,0
2018-12-15T02:07:13.318Z,0
2018-12-15T02:08:15.347Z,0
2018-12-15T02:09:17.353Z,0
2018-12-15T02:10:19.669Z,0
2018-12-15T02:11:21.993Z,0
2018-12-15T02:12:24.028Z,0
2018-12-15T02:13:26.332Z,0
2018-12-15T02:14:28.362Z,0
2018-12-15T02:15:30.389Z,0
2018-12-15T02:16:32.406Z,0
2018-12-15T02:17:35.132Z,0
2018-12-15T02:18:37.142Z,0
2018-12-15T02:19:39.162Z,0
2018-12-15T02:20:41.176Z,0
2018-12-15T02:21:43.213Z,0
2018-12-15T02:22:45.229Z,0
2018-12-15T02:23:47.249Z,0
2018-12-15T02:24:49.264Z,0
2018-12-15T02:25:51.292Z,0
2018-12-15T02:26:53.303Z,0
2018-12-15T02:27:55.329Z,0
2018-12-15T02:28:57.363Z,0
2018-12-15T02:29:59.384Z,0
2018-12-15T02:31:01.411Z,0
2018-12-15T02:32:03.732Z,0
2018-12-15T02:33:05.746Z,0
2018-12-15T02:34:07.769Z,0
2018-12-15T02:35:09.806Z,0
2018-12-15T02:36:12.133Z,0
2018-12-15T02:37:14.146Z,0
2018-12-15T02:38:16.183Z,0
2018-12-15T02:39:18.205Z,0
2018-12-15T02:40:20.521Z,0
2018-12-15T02:41:22.837Z,0
2018-12-15T02:42:24.855Z,0
2018-12-15T02:43:26.877Z,0
2018-12-15T02:44:29.290Z,0
2018-12-15T02:45:31.322Z,0
2018-12-15T02:46:33.346Z,0
2018-12-15T02:47:43.153Z,0
2018-12-15T02:48:45.177Z,0
2018-12-15T02:49:47.486Z,0
2018-12-15T02:50:49.527Z,0
2018-12-15T02:51:51.539Z,0
2018-12-15T02:52:53.572Z,0
2018-12-15T02:53:55.866Z,0
2018-12-15T02:54:57.905Z,0
2018-12-15T02:56:00.000Z,0
2018-12-15T02:57:02.032Z,0
2018-12-15T02:58:04.716Z,0
2018-12-15T02:59:06.781Z,0
2018-12-15T03:00:08.811Z,0
2018-12-15T03:01:11.115Z,0
2018-12-15T03:02:13.150Z,0
2018-12-15T03:03:15.177Z,0
2018-12-15T03:04:17.212Z,0
2018-12-15T03:05:19.260Z,0
2018-12-15T03:06:21.285Z,0
2018-12-15T03:07:23.309Z,0
2018-12-15T03:08:25.448Z,0
2018-12-15T03:09:27.474Z,0
2018-12-15T03:10:29.773Z,0
2018-12-15T03:11:32.377Z,0
2018-12-15T03:12:34.393Z,0
2018-12-15T03:13:36.799Z,0
2018-12-15T03:14:38.830Z,0
2018-12-15T03:15:40.843Z,0
2018-12-15T03:16:43.149Z,0
2018-12-15T03:17:50.269Z,0
2018-12-15T03:18:52.621Z,0
2018-12-15T03:19:54.933Z,0
2018-12-15T03:20:57.250Z,0
2018-12-15T03:21:59.721Z,0
2018-12-15T03:23:01.747Z,0
2018-12-15T03:24:04.431Z,0
2018-12-15T03:25:06.452Z,0
2018-12-15T03:26:08.478Z,0
2018-12-15T03:27:10.497Z,0
2018-12-15T03:28:12.544Z,0
2018-12-15T03:29:15.411Z,0
2018-12-15T03:30:17.890Z,0
2018-12-15T03:31:20.211Z,0
2018-12-15T03:32:23.206Z,0
2018-12-15T03:33:25.237Z,0
2018-12-15T03:34:27.261Z,0
2018-12-15T03:35:29.554Z,0
2018-12-15T03:36:31.865Z,0
2018-12-15T03:37:34.476Z,0
2018-12-15T03:38:36.502Z,0
2018-12-15T03:39:38.560Z,0
2018-12-15T03:40:40.580Z,0
2018-12-15T03:41:42.985Z,0
2018-12-15T03:42:45.017Z,0
2018-12-15T03:43:47.061Z,0
2018-12-15T03:44:49.355Z,0
2018-12-15T03:45:51.395Z,0
2018-12-15T03:46:53.734Z,0
2018-12-15T03:47:57.665Z,0
2018-12-15T03:49:00.023Z,0
2018-12-15T03:50:02.662Z,0
2018-12-15T03:51:05.086Z,0
2018-12-15T03:52:07.096Z,0
2018-12-15T03:53:09.135Z,0
2018-12-15T03:54:11.148Z,0
2018-12-15T03:55:13.178Z,0
2018-12-15T03:56:15.602Z,0
2018-12-15T03:57:17.663Z,0
2018-12-15T03:58:20.304Z,0
2018-12-15T03:59:23.284Z,0
2018-12-15T04:00:25.318Z,0
2018-12-15T04:01:27.335Z,0
2018-12-15T04:02:29.369Z,0
2018-12-15T04:03:31.384Z,0
2018-12-15T04:04:33.811Z,0
2018-12-15T04:05:35.906Z,0
2018-12-15T04:06:38.222Z,0
2018-12-15T04:07:40.241Z,0
2018-12-15T04:08:42.574Z,0
2018-12-15T04:09:44.603Z,0
2018-12-15T04:10:46.916Z,0
2018-12-15T04:11:49.235Z,0
2018-12-15T04:12:51.260Z,0
2018-12-15T04:13:53.284Z,0
2018-12-15T04:14:55.625Z,0
2018-12-15T04:15:57.654Z,0
2018-12-15T04:16:59.964Z,0
2018-12-15T04:18:05.085Z,0
2018-12-15T04:19:07.399Z,0
2018-12-15T04:20:09.709Z,0
2018-12-15T04:21:12.160Z,0
2018-12-15T04:22:14.196Z,0
2018-12-15T04:23:16.258Z,0
2018-12-15T04:24:18.277Z,0
2018-12-15T04:25:20.288Z,0
2018-12-15T04:26:22.319Z,0
2018-12-15T04:27:24.335Z,0
2018-12-15T04:28:26.642Z,0
2018-12-15T04:29:28.957Z,0
2018-12-15T04:30:30.966Z,0
2018-12-15T04:31:33.002Z,0
2018-12-15T04:32:35.435Z,0
2018-12-15T04:33:37.467Z,0
2018-12-15T04:34:39.490Z,0
2018-12-15T04:35:41.515Z,0
2018-12-15T04:36:43.544Z,0
2018-12-15T04:37:45.570Z,0
2018-12-15T04:38:47.619Z,0
2018-12-15T04:39:50.014Z,0
2018-12-15T04:40:52.056Z,0
2018-12-15T04:41:54.696Z,0
2018-12-15T04:42:56.729Z,0
2018-12-15T04:43:59.030Z,0
2018-12-15T04:45:01.346Z,0
2018-12-15T04:46:03.747Z,0
2018-12-15T04:47:05.777Z,0
2018-12-15T04:48:12.701Z,0
2018-12-15T04:49:14.723Z,0
2018-12-15T04:50:17.406Z,0
2018-12-15T04:51:19.738Z,0
2018-12-15T04:52:21.856Z,0
2018-12-15T04:53:24.159Z,0
2018-12-15T04:54:26.175Z,0
2018-12-15T04:55:28.214Z,0
2018-12-15T04:56:30.677Z,0
2018-12-15T04:57:32.993Z,0
2018-12-15T04:58:35.009Z,0
2018-12-15T04:59:37.042Z,0
2018-12-15T05:00:39.055Z,0
2018-12-15T05:01:41.355Z,0
2018-12-15T05:02:45.378Z,0
2018-12-15T05:03:47.748Z,0
2018-12-15T05:04:49.849Z,0
2018-12-15T05:05:51.873Z,0
2018-12-15T05:06:53.904Z,0
2018-12-15T05:07:55.929Z,0
2018-12-15T05:08:58.346Z,0
2018-12-15T05:10:00.696Z,0
2018-12-15T05:11:02.716Z,0
2018-12-15T05:12:04.753Z,0
2018-12-15T05:13:07.064Z,0
2018-12-15T05:14:09.855Z,0
2018-12-15T05:15:11.880Z,0
2018-12-15T05:16:13.908Z,0
2018-12-15T05:17:15.925Z,0
2018-12-15T05:18:20.313Z,0
2018-12-15T05:19:22.333Z,0
2018-12-15T05:20:24.405Z,0
2018-12-15T05:21:26.465Z,0
2018-12-15T05:22:28.484Z,0
2018-12-15T05:23:30.498Z,0
2018-12-15T05:24:32.534Z,0
2018-12-15T05:25:34.854Z,0
2018-12-15T05:26:36.879Z,0
2018-12-15T05:27:38.905Z,0
2018-12-15T05:28:40.914Z,0
2018-12-15T05:29:42.940Z,0
2018-12-15T05:30:44.971Z,0
2018-12-15T05:31:47.009Z,0
2018-12-15T05:32:49.425Z,0
2018-12-15T05:33:51.438Z,0
2018-12-15T05:34:53.464Z,0
2018-12-15T05:35:55.499Z,0
2018-12-15T05:36:58.744Z,0
2018-12-15T05:38:00.787Z,0
2018-12-15T05:39:02.822Z,0
2018-12-15T05:40:04.854Z,0
2018-12-15T05:41:07.245Z,0
2018-12-15T05:42:09.274Z,0
2018-12-15T05:43:11.297Z,0
2018-12-15T05:44:13.315Z,0
2018-12-15T05:45:15.397Z,0
2018-12-15T05:46:17.412Z,0
2018-12-15T05:47:19.821Z,0
2018-12-15T05:48:26.936Z,0
2018-12-15T05:49:28.960Z,0
2018-12-15T05:50:30.973Z,0
2018-12-15T05:51:33.000Z,0
2018-12-15T05:52:35.016Z,0
2018-12-15T05:53:37.037Z,0
2018-12-15T05:54:39.069Z,0
2018-12-15T05:55:41.091Z,0
2018-12-15T05:56:43.115Z,0
2018-12-15T05:57:45.154Z,0
2018-12-15T05:58:47.168Z,0
2018-12-15T05:59:49.206Z,0
2018-12-15T06:00:51.270Z,0
2018-12-15T06:01:53.282Z,0
2018-12-15T06:02:55.603Z,0
2018-12-15T06:03:57.625Z,0
2018-12-15T06:04:59.657Z,0
2018-12-15T06:06:01.944Z,0
2018-12-15T06:07:03.972Z,0
2018-12-15T06:08:05.995Z,0
2018-12-15T06:09:08.292Z,0
2018-12-15T06:10:10.329Z,0
2018-12-15T06:11:12.624Z,0
2018-12-15T06:12:14.654Z,0
2018-12-15T06:13:16.670Z,0
2018-12-15T06:14:18.711Z,0
2018-12-15T06:15:20.735Z,0
2018-12-15T06:16:22.759Z,0
2018-12-15T06:17:24.787Z,0
2018-12-15T06:18:32.986Z,0
2018-12-15T06:19:35.017Z,0
2018-12-15T06:20:37.041Z,0
2018-12-15T06:21:39.050Z,0
2018-12-15T06:22:41.076Z,0
2018-12-15T06:23:43.108Z,0
2018-12-15T06:24:45.145Z,0
2018-12-15T06:25:47.172Z,0
2018-12-15T06:26:49.192Z,0
2018-12-15T06:27:51.205Z,0
2018-12-15T06:28:54.169Z,0
2018-12-15T06:29:56.191Z,0
2018-12-15T06:30:58.211Z,0
2018-12-15T06:32:00.240Z,0
2018-12-15T06:33:02.545Z,0
2018-12-15T06:34:04.564Z,0
2018-12-15T06:35:06.594Z,0
2018-12-15T06:36:08.609Z,0
2018-12-15T06:37:10.635Z,0
2018-12-15T06:38:12.643Z,0
2018-12-15T06:39:14.676Z,0
2018-12-15T06:40:16.694Z,0
2018-12-15T06:41:18.719Z,0
2018-12-15T06:42:21.023Z,0
2018-12-15T06:43:23.081Z,0
2018-12-15T06:44:25.501Z,0
2018-12-15T06:45:27.516Z,0
2018-12-15T06:46:29.544Z,0
2018-12-15T06:47:31.550Z,0
2018-12-15T06:48:39.713Z,0
2018-12-15T06:49:41.737Z,0
2018-12-15T06:50:43.764Z,0
2018-12-15T06:51:45.774Z,0
2018-12-15T06:52:47.808Z,0
2018-12-15T06:53:49.827Z,0
2018-12-15T06:54:51.903Z,0
2018-12-15T06:55:53.933Z,0
2018-12-15T06:56:55.971Z,0
2018-12-15T06:57:58.045Z,0
2018-12-15T06:59:00.105Z,0
2018-12-15T07:00:02.126Z,0
2018-12-15T07:01:04.423Z,0
2018-12-15T07:02:06.472Z,0
2018-12-15T07:03:08.557Z,0
2018-12-15T07:04:10.569Z,0
2018-12-15T07:05:12.596Z,0
2018-12-15T07:06:14.647Z,0
2018-12-15T07:07:16.666Z,0
2018-12-15T07:08:18.700Z,0
2018-12-15T07:09:20.719Z,0
2018-12-15T07:10:22.805Z,0
2018-12-15T07:11:24.816Z,0
2018-12-15T07:12:26.903Z,0
2018-12-15T07:13:28.921Z,0
2018-12-15T07:14:30.942Z,0
2018-12-15T07:15:32.971Z,0
2018-12-15T07:16:34.975Z,0
2018-12-15T07:17:38.601Z,0
2018-12-15T07:18:46.135Z,0
2018-12-15T07:19:48.547Z,0
2018-12-15T07:20:50.613Z,0
2018-12-15T07:21:52.921Z,0
2018-12-15T07:22:54.945Z,0
2018-12-15T07:23:56.983Z,0
2018-12-15T07:24:59.094Z,1
2018-12-15T07:26:01.114Z,1
2018-12-15T07:27:03.416Z,1
2018-12-15T07:28:05.717Z,1
2018-12-15T07:29:08.025Z,1
2018-12-15T07:30:10.050Z,1
2018-12-15T07:31:12.070Z,1
2018-12-15T07:32:14.383Z,1
2018-12-15T07:33:16.412Z,1
2018-12-15T07:34:18.707Z,2
2018-12-15T07:35:20.730Z,2
2018-12-15T07:36:22.762Z,2
2018-12-15T07:37:24.773Z,2
2018-12-15T07:38:26.807Z,2
2018-12-15T07:39:29.828Z,2
2018-12-15T07:40:31.850Z,2
2018-12-15T07:41:33.884Z,2
2018-12-15T07:42:36.297Z,3
2018-12-15T07:43:38.318Z,3
2018-12-15T07:44:40.328Z,3
2018-12-15T07:45:42.645Z,3
2018-12-15T07:46:44.744Z,3
2018-12-15T07:47:46.766Z,3
2018-12-15T07:48:53.080Z,3
2018-12-15T07:49:55.088Z,3
2018-12-15T07:50:57.440Z,4
2018-12-15T07:51:59.518Z,4
2018-12-15T07:53:01.548Z,4
2018-12-15T07:54:03.556Z,4
2018-12-15T07:55:05.580Z,4
2018-12-15T07:56:07.597Z,4
2018-12-15T07:57:09.609Z,4
2018-12-15T07:58:11.643Z,5
2018-12-15T07:59:13.654Z,5
2018-12-15T08:00:15.677Z,5
2018-12-15T08:01:17.720Z,5
2018-12-15T08:02:20.039Z,5
2018-12-15T08:03:22.054Z,6
2018-12-15T08:04:24.080Z,6
2018-12-15T08:05:26.109Z,6
2018-12-15T08:06:28.522Z,6
2018-12-15T08:07:30.530Z,7
2018-12-15T08:08:32.562Z,7
2018-12-15T08:09:34.601Z,7
2018-12-15T08:10:36.887Z,7
2018-12-15T08:11:38.916Z,8
2018-12-15T08:12:40.936Z,8
2018-12-15T08:13:42.959Z,8
2018-12-15T08:14:45.286Z,9
2018-12-15T08:15:47.324Z,9
2018-12-15T08:16:49.351Z,9
2018-12-15T08:17:51.925Z,10
2018-12-15T08:18:59.324Z,10
2018-12-15T08:20:01.344Z,10
2018-12-15T08:21:03.362Z,10
2018-12-15T08:22:05.402Z,11
2018-12-15T08:23:07.417Z,11
2018-12-15T08:24:09.453Z,11
2018-12-15T08:25:11.492Z,12
2018-12-15T08:26:13.517Z,12
2018-12-15T08:27:15.533Z,12
2018-12-15T08:28:17.561Z,12
2018-12-15T08:29:19.584Z,12
2018-12-15T08:30:21.605Z,12
2018-12-15T08:31:23.645Z,12
2018-12-15T08:32:25.972Z,12
2018-12-15T08:33:28.003Z,13
2018-12-15T08:34:30.039Z,13
2018-12-15T08:35:32.066Z,13
2018-12-15T08:36:34.083Z,14
2018-12-15T08:37:36.384Z,14
2018-12-15T08:38:38.399Z,14
2018-12-15T08:39:40.480Z,15
2018-12-15T08:40:44.083Z,15
2018-12-15T08:41:46.119Z,16
2018-12-15T08:42:48.130Z,16
2018-12-15T08:43:50.543Z,16
2018-12-15T08:44:52.557Z,17
2018-12-15T08:45:54.584Z,17
2018-12-15T08:46:56.611Z,18
2018-12-15T08:47:59.006Z,18
2018-12-15T08:49:05.954Z,19
2018-12-15T08:50:08.373Z,20
2018-12-15T08:51:10.407Z,20
2018-12-15T08:52:12.421Z,20
2018-12-15T08:53:14.455Z,21
2018-12-15T08:54:16.570Z,21
2018-12-15T08:55:18.618Z,21
2018-12-15T08:56:20.937Z,21
2018-12-15T08:57:22.952Z,22
2018-12-15T08:58:24.977Z,24
2018-12-15T08:59:26.993Z,26
2018-12-15T09:00:29.028Z,29
2018-12-15T09:01:31.325Z,27
2018-12-15T09:02:33.347Z,28
2018-12-15T09:03:35.372Z,30
2018-12-15T09:04:37.387Z,32
2018-12-15T09:05:39.415Z,32
2018-12-15T09:06:41.500Z,33
2018-12-15T09:07:43.509Z,34
2018-12-15T09:08:45.805Z,35
2018-12-15T09:09:48.119Z,35
2018-12-15T09:10:50.141Z,36
2018-12-15T09:11:52.171Z,37
2018-12-15T09:12:54.196Z,40
2018-12-15T09:13:56.204Z,49
2018-12-15T09:14:58.504Z,54
2018-12-15T09:16:00.539Z,50
2018-12-15T09:17:02.836Z,38
2018-12-15T09:18:04.869Z,40
2018-12-15T09:19:12.952Z,40
2018-12-15T09:20:14.989Z,74
2018-12-15T09:21:17.001Z,78
2018-12-15T09:22:19.040Z,94
2018-12-15T09:23:21.075Z,94
2018-12-15T09:24:35.852Z,91
2018-12-15T09:25:37.874Z,87
2018-12-15T09:26:39.902Z,86
2018-12-15T09:27:41.925Z,83
2018-12-15T09:28:43.941Z,92
2018-12-15T09:29:46.366Z,92
2018-12-15T09:30:48.388Z,97
2018-12-15T09:31:50.693Z,102
2018-12-15T09:32:52.746Z,100
2018-12-15T09:33:54.783Z,99
2018-12-15T09:34:56.801Z,101
2018-12-15T09:35:58.825Z,101
2018-12-15T09:37:00.866Z,97
2018-12-15T09:38:02.882Z,95
2018-12-15T09:39:04.925Z,97
2018-12-15T09:40:06.945Z,102
2018-12-15T09:41:08.956Z,106
2018-12-15T09:42:10.985Z,108
2018-12-15T09:43:13.064Z,105
2018-12-15T09:44:15.092Z,102
2018-12-15T09:45:17.129Z,103
2018-12-15T09:46:19.160Z,103
2018-12-15T09:47:21.179Z,101
2018-12-15T09:48:23.205Z,100
2018-12-15T09:49:25.250Z,102
2018-12-15T09:50:27.269Z,105
2018-12-15T09:51:29.304Z,105
2018-12-15T09:52:31.373Z,106
2018-12-15T09:53:33.410Z,108
2018-12-15T09:54:35.447Z,106
2018-12-15T09:55:37.476Z,110
2018-12-15T09:56:39.512Z,107
2018-12-15T09:57:41.532Z,110
2018-12-15T09:58:43.562Z,110
2018-12-15T09:59:45.603Z,104
2018-12-15T10:00:47.915Z,107
2018-12-15T10:01:50.224Z,110
2018-12-15T10:02:52.263Z,111
2018-12-15T10:03:56.147Z,110
2018-12-15T10:04:58.483Z,109
2018-12-15T10:06:00.527Z,113
2018-12-15T10:07:02.573Z,114
2018-12-15T10:08:04.598Z,116
2018-12-15T10:09:06.637Z,115
2018-12-15T10:10:09.339Z,97
2018-12-15T10:11:12.934Z,76
2018-12-15T10:12:19.237Z,64
2018-12-15T10:13:21.996Z,71
2018-12-15T10:14:24.316Z,71
2018-12-15T10:15:26.410Z,47
2018-12-15T10:16:28.453Z,41
2018-12-15T10:17:31.059Z,36
2018-12-15T10:18:33.093Z,33
2018-12-15T10:19:40.591Z,32
2018-12-15T10:20:43.002Z,30
2018-12-15T10:21:45.035Z,29
2018-12-15T10:22:47.068Z,27
2018-12-15T10:23:49.092Z,25
2018-12-15T10:24:56.052Z,24
2018-12-15T10:26:03.218Z,21
2018-12-15T10:27:10.710Z,19
2018-12-15T10:28:19.054Z,18
2018-12-15T10:29:26.833Z,17
2018-12-15T10:30:33.248Z,16
2018-12-15T10:31:41.590Z,16
2018-12-15T10:32:48.840Z,15
2018-12-15T10:33:53.000Z,15
2018-12-15T10:34:55.029Z,15
2018-12-15T10:35:57.061Z,15
2018-12-15T10:36:59.085Z,15
2018-12-15T10:38:01.387Z,15
2018-12-15T10:39:03.417Z,15
2018-12-15T10:40:06.101Z,15
2018-12-15T10:41:08.141Z,15
2018-12-15T10:42:10.176Z,15
2018-12-15T10:43:12.214Z,15
2018-12-15T10:44:14.250Z,15
2018-12-15T10:45:16.258Z,15
2018-12-15T10:46:18.300Z,15
2018-12-15T10:47:20.353Z,15
2018-12-15T10:48:24.513Z,15
2018-12-15T10:49:32.012Z,15
2018-12-15T10:50:34.110Z,15
2018-12-15T10:51:36.271Z,16
2018-12-15T10:52:38.318Z,16
2018-12-15T10:53:40.683Z,16
2018-12-15T10:54:42.704Z,16
2018-12-15T10:55:44.733Z,15
2018-12-15T10:56:46.771Z,15
2018-12-15T10:57:49.172Z,15
2018-12-15T10:58:51.204Z,15
2018-12-15T10:59:53.352Z,15
2018-12-15T11:00:55.374Z,15
2018-12-15T11:01:57.424Z,15
2018-12-15T11:02:59.460Z,15
2018-12-15T11:04:02.196Z,15
2018-12-15T11:05:05.064Z,15
2018-12-15T11:06:07.105Z,15
2018-12-15T11:07:16.823Z,15
2018-12-15T11:08:20.436Z,15
2018-12-15T11:09:22.471Z,15
2018-12-15T11:10:26.978Z,15
2018-12-15T11:11:36.851Z,15
2018-12-15T11:12:44.201Z,15
2018-12-15T11:13:47.621Z,15
2018-12-15T11:14:56.101Z,15
2018-12-15T11:15:58.164Z,15
2018-12-15T11:17:01.244Z,16
2018-12-15T11:18:03.997Z,16
2018-12-15T11:19:11.823Z,16
2018-12-15T11:20:15.037Z,17
2018-12-15T11:21:17.377Z,16
2018-12-15T11:22:20.362Z,16
2018-12-15T11:23:22.430Z,16
2018-12-15T11:24:24.454Z,17
2018-12-15T11:25:26.490Z,17
2018-12-15T11:26:28.850Z,17
2018-12-15T11:27:30.872Z,18
2018-12-15T11:28:32.905Z,18
2018-12-15T11:29:35.217Z,18
2018-12-15T11:30:37.227Z,18
2018-12-15T11:31:39.265Z,18
2018-12-15T11:32:41.279Z,18
2018-12-15T11:33:43.306Z,18
2018-12-15T11:34:45.393Z,18
2018-12-15T11:35:47.420Z,19
2018-12-15T11:36:49.443Z,19
2018-12-15T11:37:51.464Z,18
2018-12-15T11:38:53.502Z,18
2018-12-15T11:39:56.495Z,18
2018-12-15T11:40:58.580Z,18
2018-12-15T11:42:00.626Z,18
2018-12-15T11:43:02.920Z,18
2018-12-15T11:44:04.961Z,18
2018-12-15T11:45:06.972Z,18
2018-12-15T11:46:08.993Z,19
2018-12-15T11:47:11.016Z,19
2018-12-15T11:48:14.636Z,19
2018-12-15T11:49:16.658Z,19
2018-12-15T11:50:18.707Z,19
2018-12-15T11:51:21.012Z,18
2018-12-15T11:52:23.314Z,18
2018-12-15T11:53:25.339Z,18
2018-12-15T11:54:27.744Z,18
2018-12-15T11:55:29.774Z,17
2018-12-15T11:56:31.791Z,18
2018-12-15T11:57:33.804Z,18
2018-12-15T11:58:35.834Z,18
2018-12-15T11:59:37.853Z,18
2018-12-15T12:00:40.260Z,18
2018-12-15T12:01:42.289Z,18
2018-12-15T12:02:44.318Z,18
2018-12-15T12:03:46.330Z,17
2018-12-15T12:04:48.369Z,17
2018-12-15T12:05:50.439Z,17
2018-12-15T12:06:52.850Z,17
2018-12-15T12:07:54.878Z,17
2018-12-15T12:08:56.937Z,17
2018-12-15T12:09:58.962Z,18
2018-12-15T12:11:00.979Z,17
2018-12-15T12:12:03.017Z,17
2018-12-15T12:13:05.086Z,17
2018-12-15T12:14:07.131Z,18
2018-12-15T12:15:09.160Z,18
2018-12-15T12:16:11.182Z,18
2018-12-15T12:17:13.213Z,18
2018-12-15T12:18:15.221Z,18
2018-12-15T12:19:17.241Z,18
2018-12-15T12:20:19.316Z,18
2018-12-15T12:21:21.352Z,17
2018-12-15T12:22:23.371Z,17
2018-12-15T12:23:25.394Z,17
2018-12-15T12:24:27.425Z,17
2018-12-15T12:25:29.433Z,17
2018-12-15T12:26:31.467Z,17
2018-12-15T12:27:33.492Z,17
2018-12-15T12:28:35.892Z,17
2018-12-15T12:29:37.920Z,17
2018-12-15T12:30:39.942Z,17
2018-12-15T12:31:41.965Z,17
2018-12-15T12:32:44.052Z,17
2018-12-15T12:33:46.082Z,17
2018-12-15T12:34:48.120Z,17
2018-12-15T12:35:50.142Z,17
2018-12-15T12:36:52.543Z,17
2018-12-15T12:37:54.867Z,17
2018-12-15T12:38:56.886Z,17
2018-12-15T12:39:58.936Z,17
2018-12-15T12:41:00.962Z,17
2018-12-15T12:42:02.973Z,17
2018-12-15T12:43:05.031Z,17
2018-12-15T12:44:07.055Z,16
2018-12-15T12:45:09.092Z,16
2018-12-15T12:46:11.111Z,16
2018-12-15T12:47:13.710Z,16
2018-12-15T12:48:15.734Z,16
2018-12-15T12:49:17.755Z,15
2018-12-15T12:50:19.797Z,15
2018-12-15T12:51:22.198Z,14
2018-12-15T12:52:24.226Z,14
2018-12-15T12:53:26.243Z,14
2018-12-15T12:54:28.277Z,14
2018-12-15T12:55:30.297Z,14
2018-12-15T12:56:32.321Z,15
2018-12-15T12:57:34.355Z,14
2018-12-15T12:58:36.365Z,14
2018-12-15T12:59:38.410Z,14
2018-12-15T13:00:40.433Z,14
2018-12-15T13:01:42.458Z,15
2018-12-15T13:02:44.504Z,15
2018-12-15T13:03:46.533Z,15
2018-12-15T13:04:48.906Z,14
2018-12-15T13:05:50.931Z,14
2018-12-15T13:06:52.956Z,14
2018-12-15T13:07:54.970Z,14
2018-12-15T13:08:56.992Z,14
2018-12-15T13:09:59.286Z,14
2018-12-15T13:11:01.329Z,14
2018-12-15T13:12:04.017Z,14
2018-12-15T13:13:06.048Z,14
2018-12-15T13:14:08.073Z,13
2018-12-15T13:15:10.084Z,13
2018-12-15T13:16:12.118Z,13
2018-12-15T13:17:14.139Z,13
2018-12-15T13:18:16.171Z,13
2018-12-15T13:19:18.464Z,13
2018-12-15T13:20:20.495Z,13
2018-12-15T13:21:22.515Z,13
2018-12-15T13:22:24.531Z,13
2018-12-15T13:23:26.567Z,13
2018-12-15T13:24:28.577Z,13
2018-12-15T13:25:30.605Z,13
2018-12-15T13:26:32.622Z,12
2018-12-15T13:27:34.941Z,12
2018-12-15T13:28:36.963Z,12
2018-12-15T13:29:38.982Z,12
2018-12-15T13:30:41.402Z,12
2018-12-15T13:31:43.695Z,12
2018-12-15T13:32:45.736Z,12
2018-12-15T13:33:47.760Z,12
2018-12-15T13:34:49.770Z,12
2018-12-15T13:35:51.808Z,12
2018-12-15T13:36:53.839Z,11
2018-12-15T13:37:55.859Z,11
2018-12-15T13:38:57.882Z,11
2018-12-15T13:39:59.910Z,11
2018-12-15T13:41:01.925Z,11
2018-12-15T13:42:03.954Z,11
2018-12-15T13:43:05.984Z,11
2018-12-15T13:44:07.993Z,11
2018-12-15T13:45:10.015Z,11
2018-12-15T13:46:12.367Z,11
2018-12-15T13:47:14.682Z,11
2018-12-15T13:48:16.722Z,10
2018-12-15T13:49:19.045Z,10
2018-12-15T13:50:21.354Z,10
2018-12-15T13:51:23.365Z,10
2018-12-15T13:52:25.406Z,10
2018-12-15T13:53:29.249Z,10
2018-12-15T13:54:31.279Z,10
2018-12-15T13:55:33.313Z,9
2018-12-15T13:56:35.322Z,9
2018-12-15T13:57:37.359Z,9
2018-12-15T13:58:39.381Z,9
2018-12-15T13:59:41.467Z,9
2018-12-15T14:00:43.480Z,9
2018-12-15T14:01:45.508Z,8
2018-12-15T14:02:47.824Z,8
2018-12-15T14:03:49.845Z,8
2018-12-15T14:04:51.876Z,8
2018-12-15T14:05:53.888Z,8
2018-12-15T14:06:55.910Z,8
2018-12-15T14:07:57.943Z,7
2018-12-15T14:08:59.967Z,7
2018-12-15T14:10:02.282Z,7
2018-12-15T14:11:04.589Z,7
2018-12-15T14:12:06.895Z,7
2018-12-15T14:13:08.922Z,7
2018-12-15T14:14:10.958Z,7
2018-12-15T14:15:12.978Z,6
2018-12-15T14:16:14.991Z,6
2018-12-15T14:17:17.414Z,6
2018-12-15T14:18:19.435Z,6
2018-12-15T14:19:21.741Z,5
2018-12-15T14:20:23.774Z,5
2018-12-15T14:21:25.791Z,5
2018-12-15T14:22:27.829Z,5
2018-12-15T14:23:31.302Z,5
2018-12-15T14:24:33.400Z,4
2018-12-15T14:25:35.425Z,4
2018-12-15T14:26:37.447Z,4
2018-12-15T14:27:39.473Z,3
2018-12-15T14:28:41.523Z,3
2018-12-15T14:29:43.814Z,3
2018-12-15T14:30:46.128Z,3
2018-12-15T14:31:48.266Z,3
2018-12-15T14:32:50.575Z,2
2018-12-15T14:33:52.878Z,2
2018-12-15T14:34:54.911Z,2
2018-12-15T14:35:56.939Z,2
2018-12-15T14:36:58.952Z,2
2018-12-15T14:38:00.984Z,2
2018-12-15T14:39:03.286Z,2
2018-12-15T14:40:05.314Z,2
2018-12-15T14:41:07.349Z,1
2018-12-15T14:42:09.373Z,1
2018-12-15T14:43:11.682Z,1
2018-12-15T14:44:13.996Z,1
2018-12-15T14:45:16.405Z,1
2018-12-15T14:46:18.432Z,1
2018-12-15T14:47:20.470Z,1
2018-12-15T14:48:22.495Z,1
2018-12-15T14:49:24.509Z,1
2018-12-15T14:50:26.546Z,1
2018-12-15T14:51:28.638Z,1
2018-12-15T14:52:30.662Z,1
2018-12-15T14:53:32.693Z,0
2018-12-15T14:54:34.709Z,0
2018-12-15T14:55:36.746Z,0
2018-12-15T14:56:38.774Z,0
2018-12-15T14:57:40.812Z,0
2018-12-15T14:58:42.828Z,0
2018-12-15T14:59:44.859Z,0
2018-12-15T15:00:46.881Z,0
2018-12-15T15:01:48.905Z,0
2018-12-15T15:02:50.930Z,0
2018-12-15T15:03:52.966Z,0
2018-12-15T15:04:54.989Z,0
2018-12-15T15:05:57.020Z,0
2018-12-15T15:06:59.029Z,0
2018-12-15T15:08:01.069Z,0
2018-12-15T15:09:03.098Z,0